Time;durP1;ratioP1;P1;durP2;ratioP2;P2;SDS_P1;SDS_P2;PMS_P1;PMS_P2;Temp;Humidity;BMP_temperature;BMP_pressure;BME280_temperature;BME280_humidity;BME280_pressure;Samples;Min_cycle;Max_cycle;Signal;HPM_P1;HPM_P2
2023/10/30 00:00:08;;;;;;;3.47;1.52;;;;;;;;;;5107674;28;20043;-69
2023/10/30 00:02:34;;;;;;;6.07;1.70;;;;;;;;;;5101371;28;20488;-69
2023/10/30 00:05:01;;;;;;;6.78;1.92;;;;;;;;;;5107358;28;20055;-69
2023/10/30 00:07:28;;;;;;;3.30;1.25;;;;;;;;;;5110252;28;20045;-69
2023/10/30 00:09:54;;;;;;;9.10;1.80;;;;;;;;;;5108530;28;20051;-69
2023/10/30 00:12:21;;;;;;;4.07;1.40;;;;;;;;;;5110867;28;20044;-69
2023/10/30 00:14:48;;;;;;;2.80;1.30;;;;;;;;;;5110501;28;20060;-69
2023/10/30 00:17:16;;;;;;;5.18;1.42;;;;;;;;;;5105759;28;20044;-68
2023/10/30 00:19:42;;;;;;;3.72;1.50;;;;;;;;;;5110060;28;20131;-69
2023/10/30 00:22:11;;;;;;;4.85;1.55;;;;;;;;;;5101999;28;20044;-69
2023/10/30 00:24:37;;;;;;;6.85;1.50;;;;;;;;;;5109086;28;20202;-69
2023/10/30 00:27:04;;;;;;;4.60;1.20;;;;;;;;;;5102372;28;20510;-69
2023/10/30 00:29:32;;;;;;;3.47;1.30;;;;;;;;;;5110041;28;20039;-69
2023/10/30 00:31:59;;;;;;;4.50;1.40;;;;;;;;;;5102750;28;20504;-69
2023/10/30 00:34:27;;;;;;;8.80;1.58;;;;;;;;;;5109033;28;20040;-69
2023/10/30 00:36:53;;;;;;;5.18;1.30;;;;;;;;;;5110842;28;20050;-69
2023/10/30 00:39:20;;;;;;;3.03;1.30;;;;;;;;;;5104139;28;20048;-69
2023/10/30 00:41:47;;;;;;;5.55;1.30;;;;;;;;;;5104012;28;20130;-69
2023/10/30 00:44:13;;;;;;;6.03;1.40;;;;;;;;;;5106425;28;20043;-68
2023/10/30 00:46:40;;;;;;;3.97;1.38;;;;;;;;;;5106518;28;20047;-69
2023/10/30 00:49:06;;;;;;;4.55;1.42;;;;;;;;;;5108363;28;20568;-68
2023/10/30 00:51:34;;;;;;;5.85;1.58;;;;;;;;;;5100510;28;20047;-69
2023/10/30 00:54:01;;;;;;;5.65;1.50;;;;;;;;;;5105472;28;20052;-69
2023/10/30 00:56:27;;;;;;;6.18;1.42;;;;;;;;;;5108869;28;20046;-69
2023/10/30 00:58:54;;;;;;;7.75;1.50;;;;;;;;;;5103439;28;20520;-69
2023/10/30 01:01:23;;;;;;;6.78;1.50;;;;;;;;;;5107088;28;20051;-69
2023/10/30 01:03:49;;;;;;;4.85;1.85;;;;;;;;;;5107501;28;20050;-69
2023/10/30 01:06:16;;;;;;;5.55;1.75;;;;;;;;;;5106675;28;20492;-69
2023/10/30 01:08:44;;;;;;;5.28;1.70;;;;;;;;;;5105169;28;20491;-69
2023/10/30 01:11:10;;;;;;;5.53;1.77;;;;;;;;;;5103989;28;20044;-69
2023/10/30 01:13:37;;;;;;;3.60;1.50;;;;;;;;;;5107904;28;20086;-69
2023/10/30 01:16:05;;;;;;;5.38;1.73;;;;;;;;;;5105008;28;20075;-69
2023/10/30 01:18:32;;;;;;;4.20;1.45;;;;;;;;;;5104965;28;20046;-69
2023/10/30 01:20:58;;;;;;;7.43;1.65;;;;;;;;;;5105382;28;20484;-69
2023/10/30 01:23:25;;;;;;;6.05;1.63;;;;;;;;;;5108303;28;20385;-69
2023/10/30 01:25:53;;;;;;;6.88;1.67;;;;;;;;;;5104041;28;20044;-69
2023/10/30 01:28:19;;;;;;;6.13;2.10;;;;;;;;;;5105608;28;20415;-69
2023/10/30 01:30:46;;;;;;;4.72;1.75;;;;;;;;;;5104983;28;20057;-69
2023/10/30 01:33:12;;;;;;;2.85;1.45;;;;;;;;;;5104845;28;20047;-69
2023/10/30 01:35:39;;;;;;;4.70;1.52;;;;;;;;;;5111357;28;20046;-69
2023/10/30 01:38:06;;;;;;;4.82;1.45;;;;;;;;;;5105326;28;20044;-69
2023/10/30 01:40:32;;;;;;;7.53;1.60;;;;;;;;;;5105337;28;20138;-68
2023/10/30 01:43:07;;;;;;;5.88;1.30;;;;;;;;;;5103533;28;20047;-69
2023/10/30 01:45:33;;;;;;;3.08;1.25;;;;;;;;;;5103761;28;20054;-69
2023/10/30 01:48:00;;;;;;;4.13;1.33;;;;;;;;;;5105309;28;20046;-69
2023/10/30 01:50:27;;;;;;;3.97;1.38;;;;;;;;;;5108814;28;20048;-69
2023/10/30 01:52:53;;;;;;;3.03;1.30;;;;;;;;;;5101708;28;20392;-69
2023/10/30 01:55:20;;;;;;;7.97;1.30;;;;;;;;;;5101856;28;20476;-68
2023/10/30 01:57:47;;;;;;;2.47;1.20;;;;;;;;;;5107638;28;20054;-69
2023/10/30 02:00:16;;;;;;;4.43;1.30;;;;;;;;;;5099209;28;20044;-68
2023/10/30 02:02:42;;;;;;;2.30;1.30;;;;;;;;;;5107052;28;20426;-69
2023/10/30 02:05:09;;;;;;;7.93;1.60;;;;;;;;;;5103566;28;20040;-69
2023/10/30 02:07:36;;;;;;;4.22;1.23;;;;;;;;;;5107940;28;20058;-69
2023/10/30 02:10:04;;;;;;;4.32;1.80;;;;;;;;;;5105114;28;20051;-69
2023/10/30 02:12:31;;;;;;;4.35;1.30;;;;;;;;;;5103489;28;20096;-69
2023/10/30 02:14:57;;;;;;;4.80;1.45;;;;;;;;;;5105873;28;20480;-69
2023/10/30 02:17:25;;;;;;;6.00;1.52;;;;;;;;;;5107000;28;20112;-69
2023/10/30 02:19:52;;;;;;;5.65;1.42;;;;;;;;;;5101660;28;20047;-69
2023/10/30 02:22:18;;;;;;;6.88;1.70;;;;;;;;;;5105747;28;20047;-69
2023/10/30 02:24:45;;;;;;;7.22;1.30;;;;;;;;;;5105564;28;20050;-68
2023/10/30 02:27:13;;;;;;;4.32;1.23;;;;;;;;;;5096680;28;20510;-69
2023/10/30 02:29:40;;;;;;;5.57;1.70;;;;;;;;;;5104235;28;20052;-69
2023/10/30 02:32:07;;;;;;;7.03;1.30;;;;;;;;;;5103023;28;20052;-69
2023/10/30 02:34:34;;;;;;;11.30;1.50;;;;;;;;;;5107810;28;20131;-69
2023/10/30 02:37:01;;;;;;;4.63;1.50;;;;;;;;;;5100289;28;20044;-69
2023/10/30 02:39:32;;;;;;;6.57;1.60;;;;;;;;;;5110382;28;20056;-69
2023/10/30 02:41:59;;;;;;;4.63;1.42;;;;;;;;;;5100202;28;20088;-68
2023/10/30 02:44:28;;;;;;;7.22;2.00;;;;;;;;;;5102329;28;20324;-68
2023/10/30 02:46:55;;;;;;;4.85;1.80;;;;;;;;;;5100928;28;20484;-69
2023/10/30 02:49:22;;;;;;;6.40;1.45;;;;;;;;;;5101266;28;20225;-69
2023/10/30 02:51:49;;;;;;;3.05;2.00;;;;;;;;;;5106658;28;20127;-68
2023/10/30 02:54:15;;;;;;;5.78;1.60;;;;;;;;;;5102321;28;20044;-69
2023/10/30 02:56:42;;;;;;;4.57;1.60;;;;;;;;;;5110160;28;20507;-69
2023/10/30 02:59:09;;;;;;;5.45;1.45;;;;;;;;;;5103749;28;20093;-69
2023/10/30 03:01:37;;;;;;;24.20;3.60;;;;;;;;;;5110919;28;20518;-69
2023/10/30 03:04:04;;;;;;;5.68;1.70;;;;;;;;;;5102801;28;20266;-69
2023/10/30 03:06:31;;;;;;;5.25;1.60;;;;;;;;;;5102992;28;20519;-69
2023/10/30 03:08:59;;;;;;;5.30;1.88;;;;;;;;;;5107170;28;20457;-69
2023/10/30 03:11:25;;;;;;;5.63;2.00;;;;;;;;;;5106974;28;20048;-69
2023/10/30 03:13:52;;;;;;;7.03;2.10;;;;;;;;;;5109966;28;20048;-69
2023/10/30 03:16:19;;;;;;;3.92;1.65;;;;;;;;;;5106099;28;20131;-69
2023/10/30 03:18:46;;;;;;;3.15;1.83;;;;;;;;;;5105199;28;20445;-69
2023/10/30 03:21:13;;;;;;;4.80;1.60;;;;;;;;;;5104492;28;20047;-69
2023/10/30 03:23:40;;;;;;;2.65;1.45;;;;;;;;;;5102471;28;20050;-69
2023/10/30 03:26:06;;;;;;;3.72;1.60;;;;;;;;;;5109296;28;20050;-69
2023/10/30 03:28:33;;;;;;;5.00;2.38;;;;;;;;;;5105987;28;20039;-68
2023/10/30 03:31:05;;;;;;;10.85;1.83;;;;;;;;;;5104051;28;20055;-69
2023/10/30 03:33:32;;;;;;;5.22;1.60;;;;;;;;;;5109423;28;20044;-69
2023/10/30 03:36:00;;;;;;;6.40;1.80;;;;;;;;;;5106830;28;20056;-69
2023/10/30 03:38:26;;;;;;;4.20;1.90;;;;;;;;;;5106670;28;20048;-69
2023/10/30 03:40:53;;;;;;;4.72;1.50;;;;;;;;;;5103168;28;20060;-69
2023/10/30 03:43:19;;;;;;;4.15;2.10;;;;;;;;;;5101904;28;20054;-69
2023/10/30 03:45:46;;;;;;;4.13;1.60;;;;;;;;;;5109767;28;20123;-69
2023/10/30 03:48:12;;;;;;;2.55;1.38;;;;;;;;;;5104048;28;20119;-69
2023/10/30 03:50:39;;;;;;;6.55;1.70;;;;;;;;;;5109589;28;20503;-69
2023/10/30 03:53:07;;;;;;;6.60;1.80;;;;;;;;;;5099287;28;20044;-69
2023/10/30 03:55:34;;;;;;;5.10;1.60;;;;;;;;;;5106666;28;20511;-69
2023/10/30 03:58:02;;;;;;;5.35;1.65;;;;;;;;;;5106441;28;20050;-69
2023/10/30 04:00:28;;;;;;;4.65;2.15;;;;;;;;;;5101922;28;20134;-69
2023/10/30 04:02:55;;;;;;;4.15;1.65;;;;;;;;;;5102660;28;20046;-69
2023/10/30 04:05:22;;;;;;;2.97;1.40;;;;;;;;;;5109893;28;20046;-69
2023/10/30 04:07:48;;;;;;;4.00;1.45;;;;;;;;;;5108716;28;20043;-69
2023/10/30 04:10:16;;;;;;;7.25;1.90;;;;;;;;;;5105361;28;20427;-69
2023/10/30 04:12:43;;;;;;;7.40;1.80;;;;;;;;;;5110049;27;20513;-69
2023/10/30 04:15:10;;;;;;;6.10;1.73;;;;;;;;;;5107066;28;20040;-69
2023/10/30 04:17:37;;;;;;;6.97;1.88;;;;;;;;;;5110183;28;20488;-69
2023/10/30 04:20:04;;;;;;;2.40;1.90;;;;;;;;;;5104150;28;20046;-69
2023/10/30 04:22:30;;;;;;;2.72;1.58;;;;;;;;;;5105532;28;20053;-69
2023/10/30 04:24:57;;;;;;;6.68;2.08;;;;;;;;;;5111789;28;20047;-68
2023/10/30 04:27:25;;;;;;;3.50;1.73;;;;;;;;;;5111550;28;20043;-69
2023/10/30 04:29:51;;;;;;;3.00;2.15;;;;;;;;;;5103983;28;20039;-69
2023/10/30 04:32:18;;;;;;;5.32;1.83;;;;;;;;;;5107969;28;20054;-69
2023/10/30 04:34:44;;;;;;;6.47;2.08;;;;;;;;;;5109149;28;20039;-69
2023/10/30 04:37:11;;;;;;;6.25;1.77;;;;;;;;;;5108443;28;20510;-69
2023/10/30 04:39:37;;;;;;;5.35;1.92;;;;;;;;;;5109237;28;20063;-69
2023/10/30 04:42:04;;;;;;;3.05;2.08;;;;;;;;;;5108633;28;20048;-69
2023/10/30 04:44:32;;;;;;;6.45;2.20;;;;;;;;;;5105709;28;20062;-69
2023/10/30 04:46:59;;;;;;;8.60;2.30;;;;;;;;;;5102911;27;20055;-69
2023/10/30 04:49:25;;;;;;;4.47;2.00;;;;;;;;;;5106215;28;20422;-69
2023/10/30 04:51:52;;;;;;;6.57;2.33;;;;;;;;;;5106828;28;20054;-69
2023/10/30 04:54:18;;;;;;;4.22;1.77;;;;;;;;;;5107578;28;20529;-69
2023/10/30 04:56:45;;;;;;;6.43;2.00;;;;;;;;;;5110932;28;20048;-69
2023/10/30 04:59:11;;;;;;;6.00;2.33;;;;;;;;;;5106877;28;20075;-69
2023/10/30 05:01:39;;;;;;;6.32;3.00;;;;;;;;;;5108764;28;20059;-69
2023/10/30 05:04:06;;;;;;;5.90;2.25;;;;;;;;;;5111510;28;20039;-69
2023/10/30 05:06:33;;;;;;;8.13;2.60;;;;;;;;;;5109399;28;20415;-69
2023/10/30 05:09:00;;;;;;;8.85;2.15;;;;;;;;;;5106124;28;20060;-69
2023/10/30 05:11:26;;;;;;;6.20;2.30;;;;;;;;;;5111782;28;20052;-69
2023/10/30 05:13:53;;;;;;;4.88;2.10;;;;;;;;;;5109569;28;20043;-69
2023/10/30 05:16:19;;;;;;;3.38;2.03;;;;;;;;;;5107633;28;20521;-69
2023/10/30 05:18:47;;;;;;;4.80;2.10;;;;;;;;;;5103244;28;20047;-68
2023/10/30 05:21:14;;;;;;;4.18;2.13;;;;;;;;;;5105818;28;20415;-69
2023/10/30 05:23:40;;;;;;;4.20;1.88;;;;;;;;;;5103798;28;20411;-69
2023/10/30 05:26:07;;;;;;;4.68;2.30;;;;;;;;;;5102296;28;20054;-69
2023/10/30 05:28:33;;;;;;;5.63;2.80;;;;;;;;;;5108722;28;20040;-69
2023/10/30 05:31:06;;;;;;;5.40;2.33;;;;;;;;;;5112125;28;20063;-68
2023/10/30 05:33:32;;;;;;;4.32;2.60;;;;;;;;;;5104668;28;20043;-69
2023/10/30 05:36:00;;;;;;;4.03;2.15;;;;;;;;;;5109063;28;20397;-69
2023/10/30 05:38:27;;;;;;;3.47;1.80;;;;;;;;;;5103831;28;20093;-69
2023/10/30 05:40:53;;;;;;;6.38;2.42;;;;;;;;;;5107296;28;20054;-68
2023/10/30 05:43:20;;;;;;;3.70;1.75;;;;;;;;;;5110096;28;20047;-69
2023/10/30 05:45:47;;;;;;;3.08;1.50;;;;;;;;;;5104548;28;20050;-69
2023/10/30 05:48:14;;;;;;;3.83;1.38;;;;;;;;;;5111025;27;20040;-69
2023/10/30 05:50:40;;;;;;;3.90;1.65;;;;;;;;;;5104764;28;20051;-69
2023/10/30 05:53:08;;;;;;;4.93;2.00;;;;;;;;;;5103087;28;20050;-69
2023/10/30 05:55:35;;;;;;;4.97;2.10;;;;;;;;;;5107611;28;20047;-69
2023/10/30 05:58:02;;;;;;;4.43;2.10;;;;;;;;;;5108901;28;20491;-69
2023/10/30 06:00:29;;;;;;;4.90;2.22;;;;;;;;;;5105491;28;20039;-69
2023/10/30 06:02:56;;;;;;;5.00;2.30;;;;;;;;;;5101585;28;20130;-69
2023/10/30 06:05:23;;;;;;;7.07;4.50;;;;;;;;;;5108747;28;20044;-69
2023/10/30 06:07:49;;;;;;;7.93;3.67;;;;;;;;;;5109874;28;20056;-69
2023/10/30 06:10:19;;;;;;;8.80;4.70;;;;;;;;;;5105497;28;20051;-69
2023/10/30 06:12:47;;;;;;;7.18;3.00;;;;;;;;;;5104831;28;20044;-69
2023/10/30 06:15:14;;;;;;;7.07;3.70;;;;;;;;;;5107621;28;20044;-69
2023/10/30 06:17:40;;;;;;;7.72;3.45;;;;;;;;;;5104032;28;20044;-70
2023/10/30 06:20:08;;;;;;;7.18;3.30;;;;;;;;;;5101064;28;20416;-69
2023/10/30 06:22:35;;;;;;;4.90;3.10;;;;;;;;;;5107427;28;20047;-69
2023/10/30 06:25:02;;;;;;;5.10;2.40;;;;;;;;;;5104327;28;20419;-69
2023/10/30 06:27:32;;;;;;;7.43;2.75;;;;;;;;;;5106819;28;20519;-69
2023/10/30 06:29:59;;;;;;;6.15;2.55;;;;;;;;;;5100168;28;20062;-69
2023/10/30 06:32:25;;;;;;;11.95;2.97;;;;;;;;;;5106181;28;20060;-69
2023/10/30 06:34:53;;;;;;;4.80;2.90;;;;;;;;;;5106079;28;20435;-69
2023/10/30 06:37:20;;;;;;;6.00;2.50;;;;;;;;;;5102550;28;20044;-69
2023/10/30 06:39:46;;;;;;;5.55;2.75;;;;;;;;;;5106047;28;20130;-69
2023/10/30 06:42:13;;;;;;;5.45;2.55;;;;;;;;;;5100449;28;20044;-69
2023/10/30 06:44:41;;;;;;;9.38;4.75;;;;;;;;;;5106942;28;20044;-69
2023/10/30 06:47:07;;;;;;;7.05;3.00;;;;;;;;;;5100366;28;20047;-69
2023/10/30 06:49:34;;;;;;;7.32;3.30;;;;;;;;;;5108206;28;20507;-69
2023/10/30 06:52:01;;;;;;;5.32;2.97;;;;;;;;;;5100273;28;20067;-69
2023/10/30 06:54:27;;;;;;;6.47;3.20;;;;;;;;;;5105979;28;20044;-69
2023/10/30 06:56:54;;;;;;;6.10;3.05;;;;;;;;;;5103377;28;20450;-69
2023/10/30 06:59:21;;;;;;;6.40;3.58;;;;;;;;;;5106425;28;20525;-69
2023/10/30 07:01:48;;;;;;;6.18;3.17;;;;;;;;;;5102823;28;20456;-69
2023/10/30 07:04:16;;;;;;;3.88;2.30;;;;;;;;;;5106533;28;20407;-70
2023/10/30 07:06:44;;;;;;;4.25;2.20;;;;;;;;;;5109431;28;20054;-69
2023/10/30 07:09:12;;;;;;;4.93;2.42;;;;;;;;;;5100131;28;20065;-69
2023/10/30 07:11:40;;;;;;;5.75;2.33;;;;;;;;;;5107101;28;20052;-69
2023/10/30 07:14:08;;;;;;;5.97;2.60;;;;;;;;;;5102900;28;20040;-69
2023/10/30 07:16:35;;;;;;;5.82;2.58;;;;;;;;;;5103662;28;20511;-71
2023/10/30 07:19:04;;;;;;;4.57;2.33;;;;;;;;;;5104723;28;20272;-70
2023/10/30 07:21:30;;;;;;;5.00;2.60;;;;;;;;;;5103787;28;20056;-69
2023/10/30 07:23:57;;;;;;;10.20;3.75;;;;;;;;;;5103769;28;20044;-69
2023/10/30 07:26:24;;;;;;;6.93;2.72;;;;;;;;;;5109239;28;20044;-70
2023/10/30 07:28:51;;;;;;;5.95;2.78;;;;;;;;;;5104199;28;20050;-69
2023/10/30 07:31:19;;;;;;;5.15;2.55;;;;;;;;;;5105449;28;20059;-69
2023/10/30 07:33:45;;;;;;;6.00;2.58;;;;;;;;;;5102023;28;20483;-68
2023/10/30 07:36:13;;;;;;;5.65;2.67;;;;;;;;;;5099339;28;20044;-70
2023/10/30 07:38:41;;;;;;;6.93;2.35;;;;;;;;;;5103513;28;20053;-69
2023/10/30 07:41:08;;;;;;;6.35;2.40;;;;;;;;;;5103439;28;20048;-69
2023/10/30 07:43:35;;;;;;;5.10;2.28;;;;;;;;;;5106411;28;20051;-69
2023/10/30 07:46:01;;;;;;;4.93;2.58;;;;;;;;;;5108005;28;20048;-69
2023/10/30 07:48:28;;;;;;;4.68;2.50;;;;;;;;;;5107006;28;20574;-70
2023/10/30 07:50:54;;;;;;;5.93;2.75;;;;;;;;;;5108489;28;20044;-70
2023/10/30 07:53:22;;;;;;;4.70;2.63;;;;;;;;;;5112421;28;20430;-70
2023/10/30 07:55:50;;;;;;;3.88;2.50;;;;;;;;;;5105652;28;20123;-69
2023/10/30 07:58:17;;;;;;;6.43;2.60;;;;;;;;;;5100948;28;20052;-70
2023/10/30 08:00:44;;;;;;;6.88;2.35;;;;;;;;;;5106274;28;20414;-69
2023/10/30 08:03:11;;;;;;;5.60;2.60;;;;;;;;;;5109189;28;20043;-70
2023/10/30 08:05:37;;;;;;;3.78;1.88;;;;;;;;;;5107630;28;20044;-69
2023/10/30 08:08:04;;;;;;;6.78;2.25;;;;;;;;;;5105995;28;20066;-70
2023/10/30 08:10:32;;;;;;;2.90;1.77;;;;;;;;;;5110841;28;20057;-69
2023/10/30 08:12:59;;;;;;;3.28;1.73;;;;;;;;;;5103969;28;20058;-69
2023/10/30 08:15:25;;;;;;;4.05;2.40;;;;;;;;;;5112288;28;20519;-69
2023/10/30 08:17:53;;;;;;;4.00;1.83;;;;;;;;;;5104386;28;20101;-70
2023/10/30 08:20:19;;;;;;;5.15;2.00;;;;;;;;;;5107902;28;20454;-70
2023/10/30 08:22:46;;;;;;;3.63;1.40;;;;;;;;;;5108895;28;20071;-70
2023/10/30 08:25:13;;;;;;;3.83;1.90;;;;;;;;;;5111801;28;20051;-69
2023/10/30 08:27:40;;;;;;;3.95;1.70;;;;;;;;;;5107086;28;20039;-69
2023/10/30 08:30:08;;;;;;;2.72;1.80;;;;;;;;;;5109109;28;20054;-71
2023/10/30 08:32:35;;;;;;;2.42;1.65;;;;;;;;;;5109462;28;20128;-69
2023/10/30 08:35:02;;;;;;;4.40;1.70;;;;;;;;;;5106834;28;20127;-70
2023/10/30 08:37:29;;;;;;;2.63;1.83;;;;;;;;;;5102154;28;20105;-69
2023/10/30 08:39:55;;;;;;;5.82;1.77;;;;;;;;;;5095922;27;20056;-68
2023/10/30 08:42:22;;;;;;;3.33;1.35;;;;;;;;;;5106146;28;20083;-72
2023/10/30 08:44:50;;;;;;;3.90;1.33;;;;;;;;;;5094096;28;20044;-72
2023/10/30 08:47:16;;;;;;;2.67;1.38;;;;;;;;;;5096654;28;20040;-72
2023/10/30 08:49:43;;;;;;;1.73;1.23;;;;;;;;;;5090783;28;20039;-70
2023/10/30 08:52:10;;;;;;;1.55;1.00;;;;;;;;;;5091009;28;20423;-71
2023/10/30 08:54:36;;;;;;;6.53;1.10;;;;;;;;;;5098829;28;20097;-71
2023/10/30 08:57:03;;;;;;;1.83;1.00;;;;;;;;;;5100233;28;20052;-70
2023/10/30 08:59:30;;;;;;;1.55;0.98;;;;;;;;;;5090922;28;20040;-71
2023/10/30 09:01:58;;;;;;;1.33;1.17;;;;;;;;;;5095299;28;20062;-70
2023/10/30 09:04:24;;;;;;;1.17;0.80;;;;;;;;;;5094112;28;20407;-70
2023/10/30 09:06:51;;;;;;;2.33;1.30;;;;;;;;;;5097468;28;20484;-71
2023/10/30 09:09:17;;;;;;;2.22;1.45;;;;;;;;;;5093231;28;20039;-71
2023/10/30 09:11:44;;;;;;;2.53;1.10;;;;;;;;;;5100137;28;20052;-71
2023/10/30 09:14:11;;;;;;;1.67;1.00;;;;;;;;;;5104911;28;20047;-71
2023/10/30 09:16:37;;;;;;;2.15;1.20;;;;;;;;;;5102104;28;20042;-70
2023/10/30 09:19:05;;;;;;;2.50;1.20;;;;;;;;;;5103795;28;20055;-71
2023/10/30 09:21:32;;;;;;;1.30;1.20;;;;;;;;;;5094836;28;20428;-73
2023/10/30 09:23:58;;;;;;;3.20;1.17;;;;;;;;;;5105396;28;20526;-71
2023/10/30 09:26:25;;;;;;;2.10;1.00;;;;;;;;;;5097622;28;20534;-71
2023/10/30 09:28:52;;;;;;;2.13;1.10;;;;;;;;;;5093438;28;20050;-69
2023/10/30 09:31:19;;;;;;;1.80;0.90;;;;;;;;;;5109814;28;20055;-69
2023/10/30 09:33:46;;;;;;;1.27;0.80;;;;;;;;;;5092653;28;20055;-69
2023/10/30 09:36:14;;;;;;;1.75;1.00;;;;;;;;;;5096873;28;20492;-69
2023/10/30 09:38:41;;;;;;;1.95;0.88;;;;;;;;;;5099971;28;20060;-69
2023/10/30 09:41:11;;;;;;;1.63;1.08;;;;;;;;;;5096746;28;20048;-68
2023/10/30 09:43:39;;;;;;;1.60;0.98;;;;;;;;;;5103474;28;20050;-68
2023/10/30 09:46:07;;;;;;;2.22;1.00;;;;;;;;;;5101448;28;20040;-69
2023/10/30 09:48:34;;;;;;;1.25;0.80;;;;;;;;;;5103817;28;20048;-69
2023/10/30 09:51:02;;;;;;;2.83;0.95;;;;;;;;;;5091661;28;20074;-71
2023/10/30 09:53:31;;;;;;;0.77;0.75;;;;;;;;;;5106080;28;20051;-72
2023/10/30 09:55:59;;;;;;;0.70;0.70;;;;;;;;;;5108340;28;20131;-72
2023/10/30 09:58:26;;;;;;;1.52;0.70;;;;;;;;;;5103106;28;20417;-70
2023/10/30 10:00:52;;;;;;;1.50;0.80;;;;;;;;;;5098606;28;20514;-70
2023/10/30 10:03:20;;;;;;;1.20;0.80;;;;;;;;;;5093516;28;20498;-70
2023/10/30 10:05:55;;;;;;;1.08;0.98;;;;;;;;;;5101791;28;20044;-69
2023/10/30 10:08:22;;;;;;;3.33;0.68;;;;;;;;;;5106449;28;20047;-70
2023/10/30 10:10:57;;;;;;;1.92;1.10;;;;;;;;;;5107859;28;20632;-69
2023/10/30 10:13:24;;;;;;;2.30;0.90;;;;;;;;;;5099865;28;20058;-69
2023/10/30 10:15:51;;;;;;;2.38;0.90;;;;;;;;;;5103131;28;20414;-70
2023/10/30 10:18:24;;;;;;;2.03;1.10;;;;;;;;;;5102349;28;20503;-70
2023/10/30 10:20:56;;;;;;;1.10;0.90;;;;;;;;;;5105321;28;20055;-70
2023/10/30 10:23:22;;;;;;;1.65;0.60;;;;;;;;;;5100396;28;20101;-69
2023/10/30 10:25:57;;;;;;;1.60;0.63;;;;;;;;;;5108213;27;20050;-70
2023/10/30 10:28:24;;;;;;;1.02;0.60;;;;;;;;;;5104169;28;20040;-70
2023/10/30 10:30:51;;;;;;;0.63;0.57;;;;;;;;;;5107762;28;20054;-69
2023/10/30 10:33:20;;;;;;;0.55;0.50;;;;;;;;;;5096615;28;20518;-69
2023/10/30 10:35:48;;;;;;;1.30;0.35;;;;;;;;;;5104332;28;20043;-70
2023/10/30 10:38:16;;;;;;;0.55;0.30;;;;;;;;;;5105726;28;20055;-70
2023/10/30 10:40:46;;;;;;;2.92;0.50;;;;;;;;;;5109645;28;20180;-72
2023/10/30 10:43:16;;;;;;;0.40;0.40;;;;;;;;;;5098358;28;20396;-70
2023/10/30 10:45:43;;;;;;;1.05;0.70;;;;;;;;;;5108605;28;20051;-69
2023/10/30 10:48:10;;;;;;;2.03;0.43;;;;;;;;;;5108893;28;20484;-70
2023/10/30 10:50:37;;;;;;;1.60;0.50;;;;;;;;;;5106253;28;20046;-69
2023/10/30 10:53:06;;;;;;;1.13;0.40;;;;;;;;;;5104885;28;20070;-69
2023/10/30 10:55:35;;;;;;;0.30;0.30;;;;;;;;;;5102238;28;20047;-69
2023/10/30 10:58:08;;;;;;;0.50;0.50;;;;;;;;;;5109379;28;20056;-69
2023/10/30 11:00:41;;;;;;;0.73;0.50;;;;;;;;;;5098999;28;20458;-69
2023/10/30 11:03:08;;;;;;;0.40;0.40;;;;;;;;;;5094967;28;20047;-68
2023/10/30 11:05:36;;;;;;;0.80;0.40;;;;;;;;;;5104885;28;20503;-69
2023/10/30 11:08:14;;;;;;;0.40;0.40;;;;;;;;;;5109546;28;20054;-68
2023/10/30 11:10:46;;;;;;;0.80;0.40;;;;;;;;;;5110305;28;20066;-69
2023/10/30 11:13:21;;;;;;;0.52;0.30;;;;;;;;;;5102231;28;20050;-68
2023/10/30 11:15:54;;;;;;;0.30;0.30;;;;;;;;;;5111147;28;20510;-69
2023/10/30 11:18:24;;;;;;;0.30;0.30;;;;;;;;;;5108316;28;20043;-68
2023/10/30 11:21:07;;;;;;;0.80;0.50;;;;;;;;;;5105475;28;20089;-69
2023/10/30 11:23:52;;;;;;;0.40;0.40;;;;;;;;;;5105187;28;20040;-67
2023/10/30 11:26:39;;;;;;;0.60;0.43;;;;;;;;;;5096105;28;20670;-67
2023/10/30 11:29:08;;;;;;;0.30;0.30;;;;;;;;;;5109711;28;20047;-69
2023/10/30 11:31:52;;;;;;;0.30;0.30;;;;;;;;;;5105914;28;20046;-69
2023/10/30 11:34:23;;;;;;;1.13;0.35;;;;;;;;;;5109280;28;20043;-69
2023/10/30 11:36:51;;;;;;;2.05;0.50;;;;;;;;;;5110773;28;20045;-67
2023/10/30 11:39:21;;;;;;;0.60;0.50;;;;;;;;;;5114017;28;20043;-69
2023/10/30 11:41:50;;;;;;;0.60;0.50;;;;;;;;;;5106590;28;20055;-67
2023/10/30 11:44:17;;;;;;;0.77;0.40;;;;;;;;;;5109892;28;20044;-69
2023/10/30 11:46:46;;;;;;;0.95;0.50;;;;;;;;;;5113081;28;20043;-68
2023/10/30 11:49:16;;;;;;;1.40;0.60;;;;;;;;;;5106124;28;20052;-69
2023/10/30 11:51:43;;;;;;;1.20;0.70;;;;;;;;;;5114067;28;20051;-68
2023/10/30 11:54:10;;;;;;;0.70;0.50;;;;;;;;;;5109265;28;20048;-68
2023/10/30 11:56:38;;;;;;;0.73;0.57;;;;;;;;;;5106064;28;20406;-69
2023/10/30 11:59:05;;;;;;;0.80;0.70;;;;;;;;;;5110641;28;20044;-67
2023/10/30 12:01:34;;;;;;;0.40;0.40;;;;;;;;;;5112739;28;20051;-68
2023/10/30 12:04:00;;;;;;;0.50;0.50;;;;;;;;;;5110291;28;20787;-67
2023/10/30 12:06:28;;;;;;;0.60;0.45;;;;;;;;;;5111617;28;20058;-68
2023/10/30 12:08:55;;;;;;;1.23;0.40;;;;;;;;;;5103968;28;20040;-69
2023/10/30 12:11:22;;;;;;;0.50;0.50;;;;;;;;;;5103109;28;20040;-68
2023/10/30 12:13:50;;;;;;;0.52;0.45;;;;;;;;;;5108935;28;20138;-68
2023/10/30 12:16:17;;;;;;;1.40;0.70;;;;;;;;;;5105085;28;20419;-67
2023/10/30 12:18:44;;;;;;;1.52;0.65;;;;;;;;;;5109741;28;20501;-69
2023/10/30 12:21:10;;;;;;;1.05;0.65;;;;;;;;;;5111090;28;20090;-68
2023/10/30 12:23:48;;;;;;;0.60;0.60;;;;;;;;;;5104340;28;20062;-68
2023/10/30 12:26:15;;;;;;;1.88;0.50;;;;;;;;;;5108998;28;20044;-67
2023/10/30 12:28:43;;;;;;;1.88;0.90;;;;;;;;;;5108517;28;20052;-67
2023/10/30 12:31:20;;;;;;;2.45;1.08;;;;;;;;;;5102133;28;20416;-69
2023/10/30 12:33:46;;;;;;;1.73;0.90;;;;;;;;;;5105453;28;20050;-69
2023/10/30 12:36:13;;;;;;;3.58;0.70;;;;;;;;;;5105410;28;20152;-69
2023/10/30 12:38:40;;;;;;;2.17;0.95;;;;;;;;;;5102947;28;20035;-68
2023/10/30 12:41:08;;;;;;;1.00;0.60;;;;;;;;;;5106204;28;20048;-71
2023/10/30 12:43:39;;;;;;;0.98;0.80;;;;;;;;;;5104753;28;20044;-66
2023/10/30 12:46:06;;;;;;;2.35;0.75;;;;;;;;;;5108158;28;20078;-67
2023/10/30 12:48:33;;;;;;;0.73;0.60;;;;;;;;;;5107756;28;20052;-67
2023/10/30 12:50:59;;;;;;;0.70;0.70;;;;;;;;;;5103762;28;20043;-67
2023/10/30 12:53:26;;;;;;;1.40;0.70;;;;;;;;;;5105528;28;20048;-67
2023/10/30 12:55:53;;;;;;;0.47;0.40;;;;;;;;;;5104254;28;20333;-67
2023/10/30 12:58:23;;;;;;;0.45;0.43;;;;;;;;;;5100985;28;20044;-66
2023/10/30 13:00:50;;;;;;;0.47;0.40;;;;;;;;;;5109882;27;20097;-67
2023/10/30 13:03:16;;;;;;;1.98;1.10;;;;;;;;;;5109212;28;20049;-67
2023/10/30 13:05:43;;;;;;;2.78;1.00;;;;;;;;;;5104809;28;20515;-67
2023/10/30 13:08:09;;;;;;;1.27;1.02;;;;;;;;;;5101850;28;20051;-66
2023/10/30 13:10:36;;;;;;;1.88;0.90;;;;;;;;;;5112249;28;20062;-67
2023/10/30 13:13:03;;;;;;;1.48;1.00;;;;;;;;;;5101649;28;20415;-67
2023/10/30 13:15:31;;;;;;;2.13;1.02;;;;;;;;;;5105127;28;20507;-67
2023/10/30 13:17:57;;;;;;;2.75;1.20;;;;;;;;;;5106104;28;20067;-67
2023/10/30 13:20:24;;;;;;;1.77;0.70;;;;;;;;;;5107488;28;20044;-67
2023/10/30 13:22:50;;;;;;;3.67;0.90;;;;;;;;;;5112002;28;20047;-67
2023/10/30 13:25:17;;;;;;;1.40;0.60;;;;;;;;;;5104393;28;20484;-67
2023/10/30 13:27:44;;;;;;;1.15;0.80;;;;;;;;;;5107903;28;20051;-67
2023/10/30 13:30:12;;;;;;;1.70;1.00;;;;;;;;;;5101283;28;20039;-67
2023/10/30 13:32:40;;;;;;;1.10;0.73;;;;;;;;;;5100180;28;20044;-67
2023/10/30 13:35:07;;;;;;;2.63;1.10;;;;;;;;;;5103584;28;20044;-66
2023/10/30 13:37:35;;;;;;;3.03;1.10;;;;;;;;;;5098402;28;20435;-66
2023/10/30 13:40:02;;;;;;;6.43;1.10;;;;;;;;;;5103958;28;20131;-67
2023/10/30 13:42:29;;;;;;;3.30;1.00;;;;;;;;;;5105995;28;20170;-66
2023/10/30 13:44:56;;;;;;;3.17;0.80;;;;;;;;;;5106833;28;20043;-67
2023/10/30 13:47:23;;;;;;;4.93;1.10;;;;;;;;;;5099477;28;20067;-67
2023/10/30 13:49:51;;;;;;;1.52;0.98;;;;;;;;;;5108013;28;20507;-66
2023/10/30 13:52:18;;;;;;;1.95;1.25;;;;;;;;;;5105657;27;20040;-67
2023/10/30 13:54:46;;;;;;;2.97;1.00;;;;;;;;;;5104248;28;20419;-67
2023/10/30 13:57:13;;;;;;;2.45;0.95;;;;;;;;;;5107683;28;20043;-66
2023/10/30 13:59:40;;;;;;;3.95;1.08;;;;;;;;;;5103145;28;20173;-66
2023/10/30 14:02:07;;;;;;;6.20;1.50;;;;;;;;;;5098953;28;20051;-67
2023/10/30 14:04:33;;;;;;;3.50;1.20;;;;;;;;;;5101356;28;20055;-67
2023/10/30 14:07:01;;;;;;;3.08;1.08;;;;;;;;;;5090555;28;20040;-66
2023/10/30 14:09:28;;;;;;;3.30;1.15;;;;;;;;;;5109975;28;20044;-67
2023/10/30 14:11:54;;;;;;;4.03;1.05;;;;;;;;;;5101902;28;20810;-66
2023/10/30 14:14:21;;;;;;;4.88;1.23;;;;;;;;;;5100559;28;20054;-67
2023/10/30 14:16:47;;;;;;;2.33;1.25;;;;;;;;;;5104163;28;20048;-67
2023/10/30 14:19:14;;;;;;;7.18;1.20;;;;;;;;;;5104321;28;20055;-67
2023/10/30 14:21:41;;;;;;;2.67;1.20;;;;;;;;;;5104072;28;20050;-67
2023/10/30 14:24:10;;;;;;;5.70;1.25;;;;;;;;;;5100932;28;20055;-67
2023/10/30 14:26:37;;;;;;;1.65;0.90;;;;;;;;;;5103950;28;20054;-67
2023/10/30 14:29:04;;;;;;;2.63;1.38;;;;;;;;;;5108271;28;20047;-66
2023/10/30 14:31:30;;;;;;;2.13;0.88;;;;;;;;;;5102483;28;20044;-67
2023/10/30 14:33:57;;;;;;;3.85;0.93;;;;;;;;;;5101363;28;20415;-67
2023/10/30 14:36:23;;;;;;;3.00;1.55;;;;;;;;;;5109829;28;20047;-67
2023/10/30 14:38:50;;;;;;;4.78;2.92;;;;;;;;;;5098707;28;20040;-67
2023/10/30 14:41:18;;;;;;;10.02;6.32;;;;;;;;;;5103352;28;20050;-67
2023/10/30 14:43:44;;;;;;;6.20;3.78;;;;;;;;;;5103256;28;20052;-67